createdAt,value
2023-04-18T00:00:38.601Z,12.50
2023-04-18T00:03:05.269Z,13.55
2023-04-18T00:07:57.970Z,12.85
2023-04-18T00:10:24.443Z,12.70
2023-04-18T00:12:51.391Z,12.85
2023-04-18T00:15:18.388Z,11.95
2023-04-18T00:17:44.774Z,12.40
2023-04-18T00:20:12.523Z,11.75
2023-04-18T00:22:42.531Z,10.82
2023-04-18T00:25:10.353Z,10.30
2023-04-18T00:27:37.991Z,9.80
2023-04-18T00:30:05.074Z,10.20
2023-04-18T00:32:31.765Z,9.32
2023-04-18T00:34:58.969Z,8.52
2023-04-18T00:37:25.302Z,9.45
2023-04-18T00:39:53.854Z,9.82
2023-04-18T00:42:21.734Z,9.77
2023-04-18T00:44:48.574Z,8.73
2023-04-18T00:47:16.783Z,9.45
2023-04-18T00:49:46.190Z,8.95
2023-04-18T00:52:12.548Z,8.75
2023-04-18T00:54:41.467Z,8.85
2023-04-18T00:57:07.926Z,7.85
2023-04-18T00:59:35.375Z,8.13
2023-04-18T01:02:05.095Z,8.30
2023-04-18T01:04:33.572Z,8.32
2023-04-18T01:09:28.685Z,8.73
2023-04-18T01:11:55.195Z,8.10
2023-04-18T01:14:21.810Z,8.18
2023-04-18T01:16:50.913Z,7.60
2023-04-18T01:19:18.816Z,7.90
2023-04-18T01:21:45.397Z,8.13
2023-04-18T01:24:14.685Z,8.13
2023-04-18T01:26:43.616Z,7.50
2023-04-18T01:29:10.273Z,7.80
2023-04-18T01:31:37.540Z,7.60
2023-04-18T01:34:04.750Z,8.00
2023-04-18T01:36:31.876Z,8.10
2023-04-18T01:39:01.039Z,7.28
2023-04-18T01:41:32.228Z,7.55
2023-04-18T01:43:59.129Z,7.20
2023-04-18T01:46:26.122Z,7.55
2023-04-18T01:48:53.432Z,7.15
2023-04-18T01:51:20.625Z,7.40
2023-04-18T01:53:46.959Z,7.40
2023-04-18T01:56:13.381Z,7.50
2023-04-18T01:58:41.504Z,7.47
2023-04-18T02:01:08.090Z,7.22
2023-04-18T02:03:34.861Z,6.97
2023-04-18T02:06:01.835Z,7.10
2023-04-18T02:10:54.415Z,6.97
2023-04-18T02:13:20.812Z,7.47
2023-04-18T02:15:47.177Z,7.70
2023-04-18T02:18:14.932Z,7.22
2023-04-18T02:23:07.584Z,7.57
2023-04-18T02:25:33.921Z,6.68
2023-04-18T02:28:00.985Z,7.90
2023-04-18T02:30:30.635Z,7.88
2023-04-18T02:32:57.265Z,8.13
2023-04-18T02:35:24.005Z,7.10
2023-04-18T02:37:50.360Z,7.72
2023-04-18T02:40:17.302Z,7.65
2023-04-18T02:42:43.594Z,7.60
2023-04-18T02:45:13.787Z,7.50
2023-04-18T02:47:51.782Z,7.28
2023-04-18T02:50:20.531Z,7.45
2023-04-18T02:52:46.847Z,7.35
2023-04-18T02:55:13.422Z,7.43
2023-04-18T02:57:42.551Z,7.80
2023-04-18T03:00:37.136Z,7.90
2023-04-18T03:03:22.455Z,7.80
2023-04-18T03:06:10.545Z,7.63
2023-04-18T03:08:37.458Z,7.30
2023-04-18T03:11:04.407Z,7.47
2023-04-18T03:13:30.861Z,8.27
2023-04-18T03:15:58.077Z,7.90
2023-04-18T03:18:25.979Z,7.47
2023-04-18T03:20:56.308Z,8.15
2023-04-18T03:23:22.832Z,8.10
2023-04-18T03:25:49.217Z,7.93
2023-04-18T03:28:15.835Z,8.10
2023-04-18T03:30:42.854Z,8.32
2023-04-18T03:33:09.921Z,7.68
2023-04-18T03:35:36.377Z,8.27
2023-04-18T03:38:02.769Z,8.38
2023-04-18T03:40:33.040Z,8.27
2023-04-18T03:43:06.089Z,8.23
2023-04-18T03:45:32.422Z,8.23
2023-04-18T03:50:26.250Z,8.07
2023-04-18T03:52:54.820Z,8.60
2023-04-18T03:55:21.785Z,8.57
2023-04-18T03:57:48.368Z,8.05
2023-04-18T04:00:22.873Z,8.40
2023-04-18T04:02:59.055Z,8.60
2023-04-18T04:05:25.645Z,8.38
2023-04-18T04:07:52.115Z,9.60
2023-04-18T04:10:18.512Z,8.45
2023-04-18T04:12:45.167Z,8.82
2023-04-18T04:15:11.858Z,8.73
2023-04-18T04:17:44.617Z,8.88
2023-04-18T04:20:12.146Z,9.27
2023-04-18T04:22:38.757Z,9.45
2023-04-18T04:25:05.351Z,8.38
2023-04-18T04:27:38.856Z,9.13
2023-04-18T04:30:09.554Z,8.70
2023-04-18T04:32:38.926Z,9.73
2023-04-18T04:35:06.186Z,8.70
2023-04-18T04:37:33.442Z,9.68
2023-04-18T04:40:10.499Z,9.40
2023-04-18T04:42:54.125Z,9.68
2023-04-18T04:45:26.629Z,9.40
2023-04-18T04:47:53.242Z,9.43
2023-04-18T04:50:20.569Z,9.57
2023-04-18T04:52:46.945Z,9.25
2023-04-18T04:55:14.007Z,9.75
2023-04-18T04:57:41.885Z,9.32
2023-04-18T05:00:31.860Z,9.77
2023-04-18T05:02:58.416Z,9.52
2023-04-18T05:05:26.236Z,9.15
2023-04-18T05:07:52.632Z,9.80
2023-04-18T05:10:19.107Z,10.00
2023-04-18T05:12:45.619Z,10.98
2023-04-18T05:15:12.669Z,10.50
2023-04-18T05:17:38.989Z,10.52
2023-04-18T05:20:05.764Z,9.70
2023-04-18T05:22:32.282Z,9.70
2023-04-18T05:24:58.780Z,10.10
2023-04-18T05:27:27.169Z,9.55
2023-04-18T05:29:53.594Z,10.27
2023-04-18T05:32:19.996Z,10.25
2023-04-18T05:34:46.907Z,9.45
2023-04-18T05:37:13.224Z,9.52
2023-04-18T05:39:39.825Z,9.57
2023-04-18T05:42:06.206Z,9.82
2023-04-18T05:44:32.520Z,9.40
2023-04-18T05:46:58.888Z,9.80
2023-04-18T05:49:25.257Z,9.85
2023-04-18T05:51:52.900Z,9.88
2023-04-18T05:54:21.452Z,9.73
2023-04-18T05:56:48.161Z,9.48
2023-04-18T05:59:14.579Z,10.73
2023-04-18T06:01:40.958Z,10.15
2023-04-18T06:04:08.569Z,9.52
2023-04-18T06:06:35.623Z,9.98
2023-04-18T06:09:02.001Z,9.07
2023-04-18T06:11:28.433Z,10.77
2023-04-18T06:13:55.962Z,10.48
2023-04-18T06:16:22.418Z,9.85
2023-04-18T06:18:48.958Z,9.32
2023-04-18T06:21:15.273Z,9.93
2023-04-18T06:23:41.620Z,9.68
2023-04-18T06:26:08.917Z,10.02
2023-04-18T06:28:35.534Z,9.57
2023-04-18T06:31:01.809Z,10.18
2023-04-18T06:33:28.428Z,10.25
2023-04-18T06:35:55.006Z,9.93
2023-04-18T06:38:21.335Z,9.23
2023-04-18T06:40:47.683Z,9.10
2023-04-18T06:43:14.084Z,10.27
2023-04-18T06:45:40.438Z,9.82
2023-04-18T06:48:08.827Z,9.82
2023-04-18T06:50:35.204Z,9.60
2023-04-18T06:53:02.144Z,9.10
2023-04-18T06:55:28.472Z,8.90
2023-04-18T06:57:54.835Z,9.32
2023-04-18T07:00:21.289Z,9.27
2023-04-18T07:02:47.989Z,9.00
2023-04-18T07:05:14.540Z,9.38
2023-04-18T07:07:40.926Z,9.07
2023-04-18T07:10:09.470Z,9.23
2023-04-18T07:12:36.015Z,8.88
2023-04-18T07:15:03.530Z,9.65
2023-04-18T07:17:29.863Z,9.10
2023-04-18T07:19:56.194Z,8.65
2023-04-18T07:22:22.475Z,8.90
2023-04-18T07:24:48.860Z,9.25
2023-04-18T07:27:15.214Z,9.27
2023-04-18T07:29:41.644Z,9.27
2023-04-18T07:32:08.637Z,9.10
2023-04-18T07:34:36.135Z,9.32
2023-04-18T07:37:02.765Z,8.45
2023-04-18T07:39:29.288Z,8.57
2023-04-18T07:41:55.636Z,8.40
2023-04-18T07:44:21.933Z,8.45
2023-04-18T07:46:48.325Z,8.20
2023-04-18T07:49:15.103Z,8.07
2023-04-18T07:51:41.640Z,8.45
2023-04-18T07:54:08.005Z,7.30
2023-04-18T07:56:34.570Z,7.55
2023-04-18T07:59:01.680Z,7.38
2023-04-18T08:01:28.097Z,7.78
2023-04-18T08:03:56.572Z,7.65
2023-04-18T08:06:23.114Z,7.45
2023-04-18T08:08:49.373Z,7.53
2023-04-18T08:11:15.796Z,7.05
2023-04-18T08:13:42.110Z,6.50
2023-04-18T08:16:08.605Z,7.13
2023-04-18T08:18:36.449Z,8.00
2023-04-18T08:21:03.208Z,7.90
2023-04-18T08:23:29.676Z,7.70
2023-04-18T08:25:56.022Z,7.55
2023-04-18T08:28:22.400Z,7.38
2023-04-18T08:30:49.177Z,6.97
2023-04-18T08:33:18.198Z,7.47
2023-04-18T08:35:44.616Z,7.32
2023-04-18T08:38:13.508Z,7.47
2023-04-18T08:40:39.880Z,7.70
2023-04-18T08:43:09.362Z,6.40
2023-04-18T08:45:36.872Z,6.53
2023-04-18T08:48:03.922Z,6.47
2023-04-18T08:50:30.715Z,6.65
2023-04-18T09:00:20.479Z,5.95
2023-04-18T09:02:47.295Z,5.95
2023-04-18T09:05:14.812Z,5.75
2023-04-18T09:07:42.017Z,5.97
2023-04-18T09:10:09.888Z,6.18
2023-04-18T09:12:50.523Z,5.97
2023-04-18T09:15:20.183Z,5.50
2023-04-18T09:17:50.769Z,5.05
2023-04-18T09:20:30.575Z,5.25
2023-04-18T09:22:58.053Z,5.28
2023-04-18T09:25:29.370Z,5.18
2023-04-18T09:28:00.640Z,5.22
2023-04-18T09:30:30.286Z,5.20
2023-04-18T09:32:57.991Z,4.88
2023-04-18T09:35:25.341Z,4.47
2023-04-18T09:37:51.843Z,5.55
2023-04-18T09:40:19.200Z,5.28
2023-04-18T09:42:46.405Z,4.95
2023-04-18T09:45:18.475Z,5.07
2023-04-18T09:47:45.059Z,6.05
2023-04-18T09:55:08.564Z,6.15
2023-04-18T09:57:35.635Z,5.18
2023-04-18T10:00:13.377Z,4.90
2023-04-18T10:02:49.110Z,4.95
2023-04-18T10:05:17.594Z,4.82
2023-04-18T10:07:46.111Z,5.18
2023-04-18T10:10:13.140Z,5.55
2023-04-18T10:12:40.432Z,5.60
2023-04-18T10:15:07.582Z,5.93
2023-04-18T10:17:52.497Z,5.13
2023-04-18T10:20:30.806Z,5.15
2023-04-18T10:22:58.285Z,5.25
2023-04-18T10:25:33.745Z,4.85
2023-04-18T10:28:01.532Z,4.53
2023-04-18T10:30:40.143Z,4.57
2023-04-18T10:33:30.794Z,4.50
2023-04-18T10:36:10.179Z,5.00
2023-04-18T10:38:45.067Z,4.43
2023-04-18T10:41:12.872Z,4.90
2023-04-18T10:43:57.748Z,4.90
2023-04-18T10:46:31.184Z,4.45
2023-04-18T10:49:17.501Z,5.35
2023-04-18T10:51:47.651Z,5.70
2023-04-18T10:54:19.843Z,5.40
2023-04-18T10:56:53.045Z,4.75
2023-04-18T10:59:20.957Z,5.43
2023-04-18T11:01:49.143Z,4.53
2023-04-18T11:04:16.711Z,4.60
2023-04-18T11:06:55.858Z,5.20
2023-04-18T11:09:22.642Z,5.32
2023-04-18T11:12:04.556Z,5.20
2023-04-18T11:14:43.488Z,5.57
2023-04-18T11:17:18.913Z,5.30
2023-04-18T11:19:46.044Z,5.85
2023-04-18T11:22:12.753Z,6.05
2023-04-18T11:24:39.237Z,5.70
2023-04-18T11:27:05.827Z,5.63
2023-04-18T11:31:58.857Z,5.28
2023-04-18T11:34:29.374Z,6.07
2023-04-18T11:36:55.982Z,6.28
2023-04-18T11:39:22.700Z,6.13
2023-04-18T11:41:52.271Z,6.95
2023-04-18T11:44:23.014Z,6.35
2023-04-18T11:46:51.207Z,6.82
2023-04-18T11:49:30.709Z,7.25
2023-04-18T11:51:57.440Z,6.85
2023-04-18T11:54:53.395Z,7.20
2023-04-18T11:57:19.876Z,7.00
2023-04-18T12:04:50.001Z,7.35
2023-04-18T12:07:29.160Z,7.70
2023-04-18T12:09:59.318Z,7.70
2023-04-18T12:12:26.041Z,7.35
2023-04-18T12:15:18.832Z,8.05
2023-04-18T12:17:45.935Z,7.75
2023-04-18T12:20:13.499Z,8.75
2023-04-18T12:22:49.490Z,7.53
2023-04-18T12:25:22.797Z,9.18
2023-04-18T12:27:58.082Z,9.00
2023-04-18T12:30:25.975Z,9.00
2023-04-18T12:32:54.058Z,8.65
2023-04-18T12:35:20.863Z,9.20
2023-04-18T12:37:47.822Z,9.68
2023-04-18T12:40:14.513Z,9.23
2023-04-18T12:42:41.645Z,9.75
2023-04-18T12:45:11.737Z,9.85
2023-04-18T12:47:39.168Z,9.30
2023-04-18T12:50:06.864Z,10.40
2023-04-18T12:52:33.514Z,10.48
2023-04-18T12:57:26.375Z,11.05
2023-04-18T12:59:52.814Z,10.10
2023-04-18T13:02:19.389Z,9.82
2023-04-18T13:07:12.333Z,9.30
2023-04-18T13:09:38.628Z,9.23
2023-04-18T13:12:05.219Z,9.63
2023-04-18T13:19:24.195Z,9.30
2023-04-18T13:21:50.883Z,10.43
2023-04-18T13:24:17.894Z,10.63
2023-04-18T13:26:44.295Z,11.48
2023-04-18T13:29:10.668Z,10.60
2023-04-18T13:31:37.157Z,10.65
2023-04-18T13:38:56.122Z,10.15
2023-04-18T13:41:22.490Z,11.82
2023-04-18T13:43:48.771Z,10.73
2023-04-18T13:46:15.200Z,11.55
2023-04-18T13:48:41.504Z,10.65
2023-04-18T13:51:07.922Z,11.27
2023-04-18T13:53:34.254Z,10.95
2023-04-18T13:56:01.629Z,11.48
2023-04-18T13:58:27.927Z,11.25
2023-04-18T14:00:54.256Z,10.85
2023-04-18T14:03:21.098Z,11.95
2023-04-18T14:05:47.555Z,11.85
2023-04-18T14:08:14.207Z,11.68
2023-04-18T14:10:40.697Z,11.55
2023-04-18T14:13:07.172Z,10.90
2023-04-18T14:15:33.568Z,13.15
2023-04-18T14:18:00.900Z,11.00
2023-04-18T14:20:34.068Z,11.35
2023-04-18T14:23:03.184Z,12.00
2023-04-18T14:25:30.022Z,11.23
2023-04-18T14:28:08.931Z,11.48
2023-04-18T14:30:35.873Z,10.90
2023-04-18T14:33:02.323Z,10.30
2023-04-18T14:37:55.084Z,10.65
2023-04-18T14:40:22.297Z,10.57
2023-04-18T14:42:48.812Z,10.13
2023-04-18T14:47:45.683Z,9.98
2023-04-18T14:50:12.122Z,9.40
2023-04-18T14:55:06.836Z,10.02
2023-04-18T14:57:36.844Z,9.50
2023-04-18T15:00:05.399Z,10.23
2023-04-18T15:02:31.942Z,10.43
2023-04-18T15:04:58.858Z,10.65
2023-04-18T15:07:25.361Z,11.13
2023-04-18T15:12:18.057Z,11.68
2023-04-18T15:17:10.731Z,10.52
2023-04-18T15:19:37.072Z,10.63
2023-04-18T15:22:03.589Z,10.45
2023-04-18T15:24:30.114Z,10.02
2023-04-18T15:29:23.707Z,10.02
2023-04-18T15:31:50.045Z,9.65
2023-04-18T15:34:17.022Z,9.88
2023-04-18T15:36:43.595Z,9.77
2023-04-18T15:39:10.596Z,10.30
2023-04-18T15:41:36.985Z,9.52
2023-04-18T15:44:04.312Z,9.90
2023-04-18T15:46:31.994Z,9.80
2023-04-18T15:56:17.751Z,9.13
2023-04-18T15:58:44.162Z,10.15
2023-04-18T16:01:11.916Z,9.85
2023-04-18T16:03:38.645Z,9.27
2023-04-18T16:06:05.307Z,8.00
2023-04-18T16:10:59.673Z,9.32
2023-04-18T16:13:25.974Z,10.02
2023-04-18T16:15:52.385Z,8.82
2023-04-18T16:18:18.815Z,8.98
2023-04-18T16:20:45.280Z,8.95
2023-04-18T16:23:11.715Z,9.13
2023-04-18T16:25:38.049Z,8.60
2023-04-18T16:28:04.506Z,8.40
2023-04-18T16:30:31.203Z,8.45
2023-04-18T16:32:57.587Z,8.25
2023-04-18T16:37:50.560Z,8.68
2023-04-18T16:47:36.059Z,8.73
2023-04-18T16:50:02.480Z,8.32
2023-04-18T16:52:28.859Z,8.35
2023-04-18T16:54:55.191Z,8.43
2023-04-18T16:57:21.563Z,8.77
2023-04-18T16:59:47.921Z,9.18
2023-04-18T17:02:14.601Z,8.70
2023-04-18T17:04:41.004Z,8.35
2023-04-18T17:07:07.500Z,8.20
2023-04-18T17:09:33.876Z,8.13
2023-04-18T17:12:00.196Z,8.52
2023-04-18T17:14:26.717Z,8.02
2023-04-18T17:19:20.355Z,8.52
2023-04-18T17:24:14.553Z,8.18
2023-04-18T17:26:41.098Z,8.77
2023-04-18T17:29:07.568Z,8.80
2023-04-18T17:31:34.443Z,8.07
2023-04-18T17:34:01.071Z,9.02
2023-04-18T17:36:27.680Z,8.70
2023-04-18T17:41:21.476Z,8.00
2023-04-18T17:43:48.401Z,8.05
2023-04-18T17:46:14.912Z,8.98
2023-04-18T17:48:41.454Z,8.23
2023-04-18T17:51:07.847Z,8.43
2023-04-18T17:53:34.236Z,8.63
2023-04-18T17:56:00.764Z,8.23
2023-04-18T18:08:12.488Z,7.90
2023-04-18T18:10:39.164Z,8.32
2023-04-18T18:17:59.896Z,8.10
2023-04-18T18:20:27.348Z,8.15
2023-04-18T18:22:59.428Z,9.43
2023-04-18T18:25:25.792Z,8.82
2023-04-18T18:27:54.426Z,8.63
2023-04-18T18:30:20.823Z,9.02
2023-04-18T18:32:47.306Z,9.82
2023-04-18T18:35:13.860Z,10.02
2023-04-18T18:37:40.955Z,10.38
2023-04-18T18:40:08.168Z,9.98
2023-04-18T18:42:34.499Z,9.63
2023-04-18T18:45:01.601Z,9.77
2023-04-18T18:47:28.194Z,9.02
2023-04-18T18:52:22.169Z,9.73
2023-04-18T18:54:51.330Z,9.85
2023-04-18T18:57:17.704Z,9.00
2023-04-18T18:59:44.022Z,9.63
2023-04-18T19:02:10.495Z,9.65
2023-04-18T19:09:31.508Z,8.73
2023-04-18T19:11:58.351Z,8.88
2023-04-18T19:14:24.710Z,9.20
2023-04-18T19:16:51.044Z,9.00
2023-04-18T19:19:17.487Z,9.13
2023-04-18T19:21:45.919Z,8.90
2023-04-18T19:24:12.797Z,9.40
2023-04-18T19:26:39.181Z,8.43
2023-04-18T19:29:09.861Z,9.02
2023-04-18T19:31:36.360Z,8.60
2023-04-18T19:34:02.733Z,8.88
2023-04-18T19:36:30.245Z,9.43
2023-04-18T19:38:56.604Z,8.85
2023-04-18T19:41:24.066Z,9.18
2023-04-18T19:43:50.468Z,8.35
2023-04-18T19:46:16.948Z,8.50
2023-04-18T19:48:43.292Z,8.60
2023-04-18T19:51:12.461Z,8.32
2023-04-18T19:53:38.908Z,8.27
2023-04-18T19:56:05.219Z,8.20
2023-04-18T19:58:44.917Z,7.13
2023-04-18T20:01:14.882Z,7.25
2023-04-18T20:03:42.178Z,8.15
2023-04-18T20:06:09.150Z,8.13
2023-04-18T20:08:36.411Z,7.57
2023-04-18T20:11:04.125Z,7.47
2023-04-18T20:13:30.509Z,7.70
2023-04-18T20:15:56.909Z,7.57
2023-04-18T20:18:26.217Z,7.15
2023-04-18T20:20:52.524Z,7.32
2023-04-18T20:23:18.827Z,7.72
2023-04-18T20:25:45.230Z,7.03
2023-04-18T20:28:11.740Z,7.32
2023-04-18T20:30:38.072Z,7.28
2023-04-18T20:33:04.431Z,7.50
2023-04-18T20:35:31.428Z,7.05
2023-04-18T20:38:00.251Z,7.07
2023-04-18T20:40:27.168Z,7.40
2023-04-18T20:42:55.270Z,7.15
2023-04-18T20:45:22.773Z,7.03
2023-04-18T20:47:49.158Z,7.70
2023-04-18T20:50:18.027Z,6.95
2023-04-18T20:52:44.458Z,6.78
2023-04-18T20:55:13.893Z,7.60
2023-04-18T20:57:40.244Z,7.15
2023-04-18T21:00:07.165Z,7.32
2023-04-18T21:02:33.605Z,7.15
2023-04-18T21:07:26.469Z,6.97
2023-04-18T21:09:52.898Z,7.65
2023-04-18T21:12:19.243Z,7.03
2023-04-18T21:14:45.606Z,7.00
2023-04-18T21:17:16.927Z,7.28
2023-04-18T21:19:46.929Z,6.85
2023-04-18T21:22:14.028Z,6.82
2023-04-18T21:24:40.502Z,7.35
2023-04-18T21:27:07.204Z,7.10
2023-04-18T21:32:00.032Z,7.35
2023-04-18T21:36:52.771Z,5.90
2023-04-18T21:39:19.128Z,6.88
2023-04-18T21:41:45.437Z,7.15
2023-04-18T21:44:14.346Z,6.90
2023-04-18T21:49:07.144Z,6.68
2023-04-18T21:51:33.509Z,7.40
2023-04-18T21:53:59.838Z,7.53
2023-04-18T21:56:26.738Z,7.82
2023-04-18T21:58:53.068Z,7.50
2023-04-18T22:01:19.478Z,6.88
2023-04-18T22:03:46.269Z,7.55
2023-04-18T22:06:13.195Z,7.43
2023-04-18T22:11:05.817Z,6.38
2023-04-18T22:13:33.020Z,6.82
2023-04-18T22:16:02.064Z,7.30
2023-04-18T22:18:30.554Z,7.22
2023-04-18T22:20:56.910Z,7.28
2023-04-18T22:23:23.282Z,7.60
2023-04-18T22:25:49.639Z,7.13
2023-04-18T22:28:16.045Z,7.32
2023-04-18T22:30:42.461Z,7.07
2023-04-18T22:33:08.800Z,7.15
2023-04-18T22:35:35.228Z,7.38
2023-04-18T22:38:01.591Z,7.70
2023-04-18T22:40:27.944Z,7.13
2023-04-18T22:42:54.404Z,6.82
2023-04-18T22:45:20.832Z,7.45
2023-04-18T22:47:47.244Z,7.03
2023-04-18T22:50:14.265Z,7.38
2023-04-18T22:52:41.130Z,7.32
2023-04-18T22:55:08.150Z,7.63
2023-04-18T22:57:34.518Z,6.97
2023-04-18T23:00:00.923Z,7.70
2023-04-18T23:02:27.553Z,7.10
2023-04-18T23:09:46.714Z,7.45
2023-04-18T23:12:13.061Z,7.40
2023-04-18T23:14:41.775Z,7.43
2023-04-18T23:17:08.343Z,7.35
2023-04-18T23:19:34.912Z,8.20
2023-04-18T23:22:01.263Z,7.50
2023-04-18T23:24:27.684Z,7.57
2023-04-18T23:26:54.033Z,7.53
2023-04-18T23:29:20.394Z,7.80
2023-04-18T23:31:46.764Z,7.75
2023-04-18T23:34:13.593Z,7.57
2023-04-18T23:36:40.524Z,8.07
2023-04-18T23:41:34.739Z,7.47
2023-04-18T23:44:01.115Z,8.40
2023-04-18T23:46:27.547Z,7.78
2023-04-18T23:48:53.901Z,7.45
2023-04-18T23:51:20.285Z,8.10
2023-04-18T23:53:46.638Z,7.13
2023-04-18T23:56:12.941Z,8.27
2023-04-18T23:58:39.241Z,8.10
